sensor_id;sensor_type;location;lat;lon;timestamp;temperature;humidity
20498;DHT22;10407;53.238;10.448;2023-04-02T00:00:35;1.90;99.90
20498;DHT22;10407;53.238;10.448;2023-04-02T00:03:07;1.70;99.90
20498;DHT22;10407;53.238;10.448;2023-04-02T00:05:43;2.00;99.90
20498;DHT22;10407;53.238;10.448;2023-04-02T00:08:37;1.80;99.90
20498;DHT22;10407;53.238;10.448;2023-04-02T00:11:07;1.70;99.90
20498;DHT22;10407;53.238;10.448;2023-04-02T00:13:42;1.70;99.90
20498;DHT22;10407;53.238;10.448;2023-04-02T00:16:11;1.80;99.90
20498;DHT22;10407;53.238;10.448;2023-04-02T00:18:49;2.00;99.90
20498;DHT22;10407;53.238;10.448;2023-04-02T00:21:18;1.90;99.90
20498;DHT22;10407;53.238;10.448;2023-04-02T00:23:46;2.10;99.90
20498;DHT22;10407;53.238;10.448;2023-04-02T00:26:22;2.00;99.90
20498;DHT22;10407;53.238;10.448;2023-04-02T00:28:51;1.90;99.90
20498;DHT22;10407;53.238;10.448;2023-04-02T00:31:19;1.90;99.90
20498;DHT22;10407;53.238;10.448;2023-04-02T00:33:48;2.30;99.90
20498;DHT22;10407;53.238;10.448;2023-04-02T00:36:18;2.10;99.90
20498;DHT22;10407;53.238;10.448;2023-04-02T00:38:46;1.90;99.90
20498;DHT22;10407;53.238;10.448;2023-04-02T00:41:18;1.90;99.90
20498;DHT22;10407;53.238;10.448;2023-04-02T00:43:46;2.20;99.90
20498;DHT22;10407;53.238;10.448;2023-04-02T00:46:18;2.20;99.90
20498;DHT22;10407;53.238;10.448;2023-04-02T00:49:00;2.20;99.90
20498;DHT22;10407;53.238;10.448;2023-04-02T00:51:34;2.10;99.90
20498;DHT22;10407;53.238;10.448;2023-04-02T00:54:00;2.10;99.90
20498;DHT22;10407;53.238;10.448;2023-04-02T00:56:36;2.00;99.90
20498;DHT22;10407;53.238;10.448;2023-04-02T00:59:03;2.10;99.90
20498;DHT22;10407;53.238;10.448;2023-04-02T01:01:35;2.00;99.90
20498;DHT22;10407;53.238;10.448;2023-04-02T01:04:04;2.20;99.90
20498;DHT22;10407;53.238;10.448;2023-04-02T01:06:38;2.30;99.90
20498;DHT22;10407;53.238;10.448;2023-04-02T01:12:08;2.10;99.90
20498;DHT22;10407;53.238;10.448;2023-04-02T01:14:53;2.20;99.90
20498;DHT22;10407;53.238;10.448;2023-04-02T01:20:19;2.20;99.90
20498;DHT22;10407;53.238;10.448;2023-04-02T01:23:02;2.00;99.90
20498;DHT22;10407;53.238;10.448;2023-04-02T01:28:16;2.00;99.90
20498;DHT22;10407;53.238;10.448;2023-04-02T01:30:54;2.00;99.90
20498;DHT22;10407;53.238;10.448;2023-04-02T01:33:26;2.10;99.90
20498;DHT22;10407;53.238;10.448;2023-04-02T01:35:58;2.20;99.90
20498;DHT22;10407;53.238;10.448;2023-04-02T01:38:26;2.30;99.90
20498;DHT22;10407;53.238;10.448;2023-04-02T01:41:02;2.20;99.90
20498;DHT22;10407;53.238;10.448;2023-04-02T01:43:32;2.00;99.90
20498;DHT22;10407;53.238;10.448;2023-04-02T01:46:04;1.90;99.90
20498;DHT22;10407;53.238;10.448;2023-04-02T01:48:31;2.20;99.90
20498;DHT22;10407;53.238;10.448;2023-04-02T01:50:59;2.20;99.90
20498;DHT22;10407;53.238;10.448;2023-04-02T01:53:30;2.30;99.90
20498;DHT22;10407;53.238;10.448;2023-04-02T01:56:00;2.30;99.90
20498;DHT22;10407;53.238;10.448;2023-04-02T01:58:30;2.20;99.90
20498;DHT22;10407;53.238;10.448;2023-04-02T02:01:10;2.30;99.90
20498;DHT22;10407;53.238;10.448;2023-04-02T02:03:33;2.30;99.90
20498;DHT22;10407;53.238;10.448;2023-04-02T02:06:02;2.40;99.90
20498;DHT22;10407;53.238;10.448;2023-04-02T02:08:48;2.30;99.90
20498;DHT22;10407;53.238;10.448;2023-04-02T02:11:22;2.30;99.90
20498;DHT22;10407;53.238;10.448;2023-04-02T02:13:55;2.40;99.90
20498;DHT22;10407;53.238;10.448;2023-04-02T02:16:24;2.50;99.90
20498;DHT22;10407;53.238;10.448;2023-04-02T02:19:02;2.10;99.90
20498;DHT22;10407;53.238;10.448;2023-04-02T02:21:46;2.10;99.90
20498;DHT22;10407;53.238;10.448;2023-04-02T02:24:19;2.20;99.90
20498;DHT22;10407;53.238;10.448;2023-04-02T02:26:48;2.30;99.90
20498;DHT22;10407;53.238;10.448;2023-04-02T02:29:18;2.10;99.90
20498;DHT22;10407;53.238;10.448;2023-04-02T02:31:48;2.30;99.90
20498;DHT22;10407;53.238;10.448;2023-04-02T02:34:19;2.20;99.90
20498;DHT22;10407;53.238;10.448;2023-04-02T02:36:55;2.00;99.90
20498;DHT22;10407;53.238;10.448;2023-04-02T02:39:39;2.00;99.90
20498;DHT22;10407;53.238;10.448;2023-04-02T02:42:30;2.10;99.90
20498;DHT22;10407;53.238;10.448;2023-04-02T02:44:56;2.40;99.90
20498;DHT22;10407;53.238;10.448;2023-04-02T02:47:37;2.40;99.90
20498;DHT22;10407;53.238;10.448;2023-04-02T02:50:10;2.20;99.90
20498;DHT22;10407;53.238;10.448;2023-04-02T02:52:37;2.10;99.90
20498;DHT22;10407;53.238;10.448;2023-04-02T02:55:07;1.90;99.90
20498;DHT22;10407;53.238;10.448;2023-04-02T02:57:38;2.20;99.90
20498;DHT22;10407;53.238;10.448;2023-04-02T03:00:07;2.10;99.90
20498;DHT22;10407;53.238;10.448;2023-04-02T03:02:38;2.00;99.90
20498;DHT22;10407;53.238;10.448;2023-04-02T03:05:07;1.90;99.90
20498;DHT22;10407;53.238;10.448;2023-04-02T03:07:35;1.90;99.90
20498;DHT22;10407;53.238;10.448;2023-04-02T03:15:48;2.20;99.90
20498;DHT22;10407;53.238;10.448;2023-04-02T03:20:57;1.80;99.90
20498;DHT22;10407;53.238;10.448;2023-04-02T03:23:43;2.10;99.90
20498;DHT22;10407;53.238;10.448;2023-04-02T03:26:17;2.20;99.90
20498;DHT22;10407;53.238;10.448;2023-04-02T03:29:00;2.40;99.90
20498;DHT22;10407;53.238;10.448;2023-04-02T03:31:26;2.60;99.90
20498;DHT22;10407;53.238;10.448;2023-04-02T03:34:07;2.50;99.90
20498;DHT22;10407;53.238;10.448;2023-04-02T03:36:34;1.80;99.90
20498;DHT22;10407;53.238;10.448;2023-04-02T03:39:51;2.10;99.90
20498;DHT22;10407;53.238;10.448;2023-04-02T03:41:55;2.50;99.90
20498;DHT22;10407;53.238;10.448;2023-04-02T03:44:47;2.40;99.90
20498;DHT22;10407;53.238;10.448;2023-04-02T03:50:00;2.10;99.90
20498;DHT22;10407;53.238;10.448;2023-04-02T03:52:29;2.20;99.90
20498;DHT22;10407;53.238;10.448;2023-04-02T03:54:59;2.30;99.90
20498;DHT22;10407;53.238;10.448;2023-04-02T03:57:32;2.40;99.90
20498;DHT22;10407;53.238;10.448;2023-04-02T04:00:15;2.10;99.90
20498;DHT22;10407;53.238;10.448;2023-04-02T04:02:50;2.10;99.90
20498;DHT22;10407;53.238;10.448;2023-04-02T04:05:27;2.10;99.90
20498;DHT22;10407;53.238;10.448;2023-04-02T04:07:58;2.50;99.90
20498;DHT22;10407;53.238;10.448;2023-04-02T04:10:25;2.30;99.90
20498;DHT22;10407;53.238;10.448;2023-04-02T04:13:00;2.40;99.90
20498;DHT22;10407;53.238;10.448;2023-04-02T04:15:28;2.30;99.90
20498;DHT22;10407;53.238;10.448;2023-04-02T04:18:19;2.50;99.90
20498;DHT22;10407;53.238;10.448;2023-04-02T04:20:49;2.50;99.90
20498;DHT22;10407;53.238;10.448;2023-04-02T04:26:05;2.40;99.90
20498;DHT22;10407;53.238;10.448;2023-04-02T04:31:26;2.40;99.90
20498;DHT22;10407;53.238;10.448;2023-04-02T04:33:54;2.20;99.90
20498;DHT22;10407;53.238;10.448;2023-04-02T04:36:37;2.40;99.90
20498;DHT22;10407;53.238;10.448;2023-04-02T04:39:10;2.70;99.90
20498;DHT22;10407;53.238;10.448;2023-04-02T04:41:37;2.40;99.90
20498;DHT22;10407;53.238;10.448;2023-04-02T04:44:13;2.40;99.90
20498;DHT22;10407;53.238;10.448;2023-04-02T04:46:44;2.50;99.90
20498;DHT22;10407;53.238;10.448;2023-04-02T04:49:15;2.40;99.90
20498;DHT22;10407;53.238;10.448;2023-04-02T04:51:51;2.50;99.90
20498;DHT22;10407;53.238;10.448;2023-04-02T04:54:19;2.40;99.90
20498;DHT22;10407;53.238;10.448;2023-04-02T04:56:50;2.50;99.90
20498;DHT22;10407;53.238;10.448;2023-04-02T04:59:24;2.70;99.90
20498;DHT22;10407;53.238;10.448;2023-04-02T05:01:56;2.80;99.90
20498;DHT22;10407;53.238;10.448;2023-04-02T05:04:29;2.70;99.90
20498;DHT22;10407;53.238;10.448;2023-04-02T05:10:12;2.70;99.90
20498;DHT22;10407;53.238;10.448;2023-04-02T05:12:36;2.60;99.90
20498;DHT22;10407;53.238;10.448;2023-04-02T05:15:11;2.60;99.90
20498;DHT22;10407;53.238;10.448;2023-04-02T05:18:40;2.60;99.90
20498;DHT22;10407;53.238;10.448;2023-04-02T05:20:26;2.50;99.90
20498;DHT22;10407;53.238;10.448;2023-04-02T05:23:05;2.50;99.90
20498;DHT22;10407;53.238;10.448;2023-04-02T05:25:33;2.70;99.90
20498;DHT22;10407;53.238;10.448;2023-04-02T05:28:16;2.90;99.90
20498;DHT22;10407;53.238;10.448;2023-04-02T05:30:48;2.60;99.90
20498;DHT22;10407;53.238;10.448;2023-04-02T05:33:25;2.50;99.90
20498;DHT22;10407;53.238;10.448;2023-04-02T05:35:59;2.80;99.90
20498;DHT22;10407;53.238;10.448;2023-04-02T05:38:30;3.00;99.90
20498;DHT22;10407;53.238;10.448;2023-04-02T05:41:01;2.80;99.90
20498;DHT22;10407;53.238;10.448;2023-04-02T05:43:31;3.10;99.90
20498;DHT22;10407;53.238;10.448;2023-04-02T05:46:03;2.70;99.90
20498;DHT22;10407;53.238;10.448;2023-04-02T05:48:36;2.70;99.90
20498;DHT22;10407;53.238;10.448;2023-04-02T05:51:07;2.90;99.90
20498;DHT22;10407;53.238;10.448;2023-04-02T05:53:36;3.00;99.90
20498;DHT22;10407;53.238;10.448;2023-04-02T05:58:50;2.90;99.90
20498;DHT22;10407;53.238;10.448;2023-04-02T06:04:10;2.90;99.90
20498;DHT22;10407;53.238;10.448;2023-04-02T06:06:41;2.90;99.90
20498;DHT22;10407;53.238;10.448;2023-04-02T06:11:45;2.90;99.90
20498;DHT22;10407;53.238;10.448;2023-04-02T06:14:15;3.20;99.90
20498;DHT22;10407;53.238;10.448;2023-04-02T06:16:44;3.40;99.90
20498;DHT22;10407;53.238;10.448;2023-04-02T06:19:24;3.20;99.90
20498;DHT22;10407;53.238;10.448;2023-04-02T06:21:49;3.30;99.90
20498;DHT22;10407;53.238;10.448;2023-04-02T06:24:21;3.30;99.90
20498;DHT22;10407;53.238;10.448;2023-04-02T06:26:52;3.60;99.90
20498;DHT22;10407;53.238;10.448;2023-04-02T06:29:25;3.40;99.90
20498;DHT22;10407;53.238;10.448;2023-04-02T06:31:57;3.40;99.90
20498;DHT22;10407;53.238;10.448;2023-04-02T06:34:27;3.40;99.90
20498;DHT22;10407;53.238;10.448;2023-04-02T06:37:16;3.50;99.90
20498;DHT22;10407;53.238;10.448;2023-04-02T06:39:43;3.60;99.90
20498;DHT22;10407;53.238;10.448;2023-04-02T06:42:17;3.50;99.90
20498;DHT22;10407;53.238;10.448;2023-04-02T06:44:42;4.10;99.90
20498;DHT22;10407;53.238;10.448;2023-04-02T06:47:21;3.70;99.90
20498;DHT22;10407;53.238;10.448;2023-04-02T06:49:59;3.90;99.90
20498;DHT22;10407;53.238;10.448;2023-04-02T06:55:20;4.10;99.90
20498;DHT22;10407;53.238;10.448;2023-04-02T06:57:40;4.00;99.90
20498;DHT22;10407;53.238;10.448;2023-04-02T07:00:14;3.80;99.90
20498;DHT22;10407;53.238;10.448;2023-04-02T07:02:39;4.00;99.90
20498;DHT22;10407;53.238;10.448;2023-04-02T07:05:08;4.20;99.90
20498;DHT22;10407;53.238;10.448;2023-04-02T07:07:35;4.20;99.90
20498;DHT22;10407;53.238;10.448;2023-04-02T07:10:03;3.80;99.90
20498;DHT22;10407;53.238;10.448;2023-04-02T07:12:32;4.00;99.90
20498;DHT22;10407;53.238;10.448;2023-04-02T07:14:59;4.00;99.90
20498;DHT22;10407;53.238;10.448;2023-04-02T07:17:27;4.40;99.90
20498;DHT22;10407;53.238;10.448;2023-04-02T07:19:55;4.40;99.90
20498;DHT22;10407;53.238;10.448;2023-04-02T07:22:22;4.60;99.90
20498;DHT22;10407;53.238;10.448;2023-04-02T07:24:51;4.80;99.90
20498;DHT22;10407;53.238;10.448;2023-04-02T07:27:19;4.70;99.90
20498;DHT22;10407;53.238;10.448;2023-04-02T07:29:46;5.00;99.90
20498;DHT22;10407;53.238;10.448;2023-04-02T07:32:14;4.30;99.90
20498;DHT22;10407;53.238;10.448;2023-04-02T07:34:41;4.60;99.90
20498;DHT22;10407;53.238;10.448;2023-04-02T07:37:12;4.50;99.90
20498;DHT22;10407;53.238;10.448;2023-04-02T07:39:40;5.00;99.90
20498;DHT22;10407;53.238;10.448;2023-04-02T07:42:07;5.40;99.90
20498;DHT22;10407;53.238;10.448;2023-04-02T07:44:35;5.10;99.90
20498;DHT22;10407;53.238;10.448;2023-04-02T07:47:03;5.30;99.90
20498;DHT22;10407;53.238;10.448;2023-04-02T07:49:30;5.60;99.90
20498;DHT22;10407;53.238;10.448;2023-04-02T07:51:58;5.00;99.90
20498;DHT22;10407;53.238;10.448;2023-04-02T07:54:26;5.00;99.90
20498;DHT22;10407;53.238;10.448;2023-04-02T07:56:54;4.80;99.90
20498;DHT22;10407;53.238;10.448;2023-04-02T07:59:21;6.00;99.90
20498;DHT22;10407;53.238;10.448;2023-04-02T08:01:51;6.30;99.90
20498;DHT22;10407;53.238;10.448;2023-04-02T08:04:20;6.60;99.90
20498;DHT22;10407;53.238;10.448;2023-04-02T08:06:49;7.00;99.90
20498;DHT22;10407;53.238;10.448;2023-04-02T08:09:18;5.80;99.90
20498;DHT22;10407;53.238;10.448;2023-04-02T08:11:45;5.90;99.90
20498;DHT22;10407;53.238;10.448;2023-04-02T08:14:13;6.10;99.90
20498;DHT22;10407;53.238;10.448;2023-04-02T08:16:46;5.10;99.90
20498;DHT22;10407;53.238;10.448;2023-04-02T08:19:14;5.20;99.90
20498;DHT22;10407;53.238;10.448;2023-04-02T08:21:42;5.10;99.90
20498;DHT22;10407;53.238;10.448;2023-04-02T08:24:09;5.10;99.90
20498;DHT22;10407;53.238;10.448;2023-04-02T08:26:37;5.60;99.90
20498;DHT22;10407;53.238;10.448;2023-04-02T08:29:04;6.00;99.90
20498;DHT22;10407;53.238;10.448;2023-04-02T08:31:32;6.00;99.90
20498;DHT22;10407;53.238;10.448;2023-04-02T08:33:59;6.70;99.90
20498;DHT22;10407;53.238;10.448;2023-04-02T08:36:32;7.00;99.90
20498;DHT22;10407;53.238;10.448;2023-04-02T08:39:00;7.80;99.90
20498;DHT22;10407;53.238;10.448;2023-04-02T08:41:27;7.40;99.60
20498;DHT22;10407;53.238;10.448;2023-04-02T08:47:04;7.80;97.20
20498;DHT22;10407;53.238;10.448;2023-04-02T08:49:57;7.40;97.50
20498;DHT22;10407;53.238;10.448;2023-04-02T08:52:31;7.90;96.60
20498;DHT22;10407;53.238;10.448;2023-04-02T08:55:01;7.50;98.10
20498;DHT22;10407;53.238;10.448;2023-04-02T08:57:40;8.10;97.40
20498;DHT22;10407;53.238;10.448;2023-04-02T09:02:46;6.30;97.60
20498;DHT22;10407;53.238;10.448;2023-04-02T09:05:28;5.90;99.90
20498;DHT22;10407;53.238;10.448;2023-04-02T09:07:59;5.90;99.90
20498;DHT22;10407;53.238;10.448;2023-04-02T09:10:37;5.70;99.90
20498;DHT22;10407;53.238;10.448;2023-04-02T09:13:01;6.00;99.90
20498;DHT22;10407;53.238;10.448;2023-04-02T09:15:34;6.00;99.90
20498;DHT22;10407;53.238;10.448;2023-04-02T09:18:18;6.30;99.90
20498;DHT22;10407;53.238;10.448;2023-04-02T09:20:46;5.90;99.90
20498;DHT22;10407;53.238;10.448;2023-04-02T09:23:17;5.70;99.90
20498;DHT22;10407;53.238;10.448;2023-04-02T09:25:49;5.70;99.90
20498;DHT22;10407;53.238;10.448;2023-04-02T09:28:18;6.90;98.50
20498;DHT22;10407;53.238;10.448;2023-04-02T09:33:43;7.80;96.80
20498;DHT22;10407;53.238;10.448;2023-04-02T09:36:31;8.30;98.40
20498;DHT22;10407;53.238;10.448;2023-04-02T09:39:02;7.70;96.40
20498;DHT22;10407;53.238;10.448;2023-04-02T09:41:34;7.50;98.00
20498;DHT22;10407;53.238;10.448;2023-04-02T09:44:17;7.50;97.30
20498;DHT22;10407;53.238;10.448;2023-04-02T09:46:55;6.90;99.90
20498;DHT22;10407;53.238;10.448;2023-04-02T09:49:33;6.70;99.70
20498;DHT22;10407;53.238;10.448;2023-04-02T09:57:34;7.20;98.20
20498;DHT22;10407;53.238;10.448;2023-04-02T10:00:20;6.70;98.50
20498;DHT22;10407;53.238;10.448;2023-04-02T10:03:14;6.80;98.70
20498;DHT22;10407;53.238;10.448;2023-04-02T10:05:34;7.00;99.90
20498;DHT22;10407;53.238;10.448;2023-04-02T10:08:19;7.90;99.00
20498;DHT22;10407;53.238;10.448;2023-04-02T10:10:49;7.20;97.40
20498;DHT22;10407;53.238;10.448;2023-04-02T10:13:37;6.80;98.40
20498;DHT22;10407;53.238;10.448;2023-04-02T10:16:17;6.60;98.90
20498;DHT22;10407;53.238;10.448;2023-04-02T10:19:10;7.10;97.60
20498;DHT22;10407;53.238;10.448;2023-04-02T10:21:35;6.90;97.60
20498;DHT22;10407;53.238;10.448;2023-04-02T10:24:12;6.90;98.70
20498;DHT22;10407;53.238;10.448;2023-04-02T10:29:52;6.60;98.40
20498;DHT22;10407;53.238;10.448;2023-04-02T10:32:54;7.60;97.20
20498;DHT22;10407;53.238;10.448;2023-04-02T10:38:23;7.90;90.00
20498;DHT22;10407;53.238;10.448;2023-04-02T10:40:56;8.20;92.50
20498;DHT22;10407;53.238;10.448;2023-04-02T10:46:56;7.40;94.30
20498;DHT22;10407;53.238;10.448;2023-04-02T10:49:09;6.80;95.30
20498;DHT22;10407;53.238;10.448;2023-04-02T10:51:45;7.30;96.10
20498;DHT22;10407;53.238;10.448;2023-04-02T10:54:42;7.30;92.10
20498;DHT22;10407;53.238;10.448;2023-04-02T10:57:28;7.80;86.50
20498;DHT22;10407;53.238;10.448;2023-04-02T11:00:02;7.90;90.10
20498;DHT22;10407;53.238;10.448;2023-04-02T11:02:55;8.30;86.10
20498;DHT22;10407;53.238;10.448;2023-04-02T11:05:06;9.10;78.60
20498;DHT22;10407;53.238;10.448;2023-04-02T11:07:35;8.50;83.70
20498;DHT22;10407;53.238;10.448;2023-04-02T11:10:02;7.80;83.70
20498;DHT22;10407;53.238;10.448;2023-04-02T11:12:48;7.80;86.60
20498;DHT22;10407;53.238;10.448;2023-04-02T11:15:15;7.10;90.60
20498;DHT22;10407;53.238;10.448;2023-04-02T11:17:44;6.90;93.50
20498;DHT22;10407;53.238;10.448;2023-04-02T11:23:16;7.10;94.40
20498;DHT22;10407;53.238;10.448;2023-04-02T11:25:45;7.70;83.60
20498;DHT22;10407;53.238;10.448;2023-04-02T11:28:29;8.10;85.50
20498;DHT22;10407;53.238;10.448;2023-04-02T11:30:58;8.30;91.00
20498;DHT22;10407;53.238;10.448;2023-04-02T11:36:56;7.80;90.20
20498;DHT22;10407;53.238;10.448;2023-04-02T11:41:45;8.10;77.30
20498;DHT22;10407;53.238;10.448;2023-04-02T11:43:48;8.20;86.90
20498;DHT22;10407;53.238;10.448;2023-04-02T11:52:03;8.50;78.00
20498;DHT22;10407;53.238;10.448;2023-04-02T11:54:33;8.50;76.30
20498;DHT22;10407;53.238;10.448;2023-04-02T11:57:25;8.10;76.20
20498;DHT22;10407;53.238;10.448;2023-04-02T12:05:35;8.50;74.00
20498;DHT22;10407;53.238;10.448;2023-04-02T12:08:27;8.60;75.70
20498;DHT22;10407;53.238;10.448;2023-04-02T12:10:55;8.90;82.70
20498;DHT22;10407;53.238;10.448;2023-04-02T12:16:11;8.90;90.70
20498;DHT22;10407;53.238;10.448;2023-04-02T12:18:49;8.30;84.00
20498;DHT22;10407;53.238;10.448;2023-04-02T12:21:17;8.40;82.70
20498;DHT22;10407;53.238;10.448;2023-04-02T12:23:47;8.50;84.50
20498;DHT22;10407;53.238;10.448;2023-04-02T12:26:32;7.80;78.90
20498;DHT22;10407;53.238;10.448;2023-04-02T12:29:25;8.20;81.70
20498;DHT22;10407;53.238;10.448;2023-04-02T12:31:55;8.70;79.80
20498;DHT22;10407;53.238;10.448;2023-04-02T12:34:25;8.40;87.50
20498;DHT22;10407;53.238;10.448;2023-04-02T12:37:01;7.90;82.30
20498;DHT22;10407;53.238;10.448;2023-04-02T12:39:30;7.30;86.70
20498;DHT22;10407;53.238;10.448;2023-04-02T12:41:59;7.60;89.00
20498;DHT22;10407;53.238;10.448;2023-04-02T12:44:28;8.40;83.20
20498;DHT22;10407;53.238;10.448;2023-04-02T12:46:57;8.30;76.50
20498;DHT22;10407;53.238;10.448;2023-04-02T12:49:39;8.60;66.00
20498;DHT22;10407;53.238;10.448;2023-04-02T12:52:16;8.70;69.00
20498;DHT22;10407;53.238;10.448;2023-04-02T12:54:50;8.30;66.80
20498;DHT22;10407;53.238;10.448;2023-04-02T12:59:59;8.60;71.80
20498;DHT22;10407;53.238;10.448;2023-04-02T13:02:30;8.30;78.60
20498;DHT22;10407;53.238;10.448;2023-04-02T13:05:00;7.70;79.60
20498;DHT22;10407;53.238;10.448;2023-04-02T13:07:31;8.30;78.40
20498;DHT22;10407;53.238;10.448;2023-04-02T13:10:01;8.40;77.20
20498;DHT22;10407;53.238;10.448;2023-04-02T13:12:34;8.30;71.90
20498;DHT22;10407;53.238;10.448;2023-04-02T13:15:04;8.50;67.50
20498;DHT22;10407;53.238;10.448;2023-04-02T13:17:41;9.00;66.50
20498;DHT22;10407;53.238;10.448;2023-04-02T13:20:28;9.20;65.80
20498;DHT22;10407;53.238;10.448;2023-04-02T13:22:58;9.20;64.30
20498;DHT22;10407;53.238;10.448;2023-04-02T13:25:31;8.60;72.80
20498;DHT22;10407;53.238;10.448;2023-04-02T13:27:59;8.10;83.80
20498;DHT22;10407;53.238;10.448;2023-04-02T13:30:28;8.20;87.20
20498;DHT22;10407;53.238;10.448;2023-04-02T13:32:55;8.20;86.40
20498;DHT22;10407;53.238;10.448;2023-04-02T13:35:23;8.80;86.20
20498;DHT22;10407;53.238;10.448;2023-04-02T13:37:52;8.40;89.60
20498;DHT22;10407;53.238;10.448;2023-04-02T13:40:20;8.80;88.60
20498;DHT22;10407;53.238;10.448;2023-04-02T13:42:48;8.60;91.50
20498;DHT22;10407;53.238;10.448;2023-04-02T13:45:35;9.00;89.70
20498;DHT22;10407;53.238;10.448;2023-04-02T13:47:59;9.10;92.30
20498;DHT22;10407;53.238;10.448;2023-04-02T13:50:29;8.50;89.40
20498;DHT22;10407;53.238;10.448;2023-04-02T13:52:59;8.50;90.40
20498;DHT22;10407;53.238;10.448;2023-04-02T13:55:29;8.20;93.40
20498;DHT22;10407;53.238;10.448;2023-04-02T13:57:58;8.40;92.90
20498;DHT22;10407;53.238;10.448;2023-04-02T14:00:25;8.50;94.20
20498;DHT22;10407;53.238;10.448;2023-04-02T14:02:56;8.60;92.30
20498;DHT22;10407;53.238;10.448;2023-04-02T14:05:34;8.50;93.50
20498;DHT22;10407;53.238;10.448;2023-04-02T14:11:06;8.60;91.90
20498;DHT22;10407;53.238;10.448;2023-04-02T14:13:45;8.40;93.70
20498;DHT22;10407;53.238;10.448;2023-04-02T14:16:34;8.50;94.60
20498;DHT22;10407;53.238;10.448;2023-04-02T14:24:42;8.60;94.00
20498;DHT22;10407;53.238;10.448;2023-04-02T14:33:00;7.90;93.40
20498;DHT22;10407;53.238;10.448;2023-04-02T14:41:02;8.50;95.40
20498;DHT22;10407;53.238;10.448;2023-04-02T14:43:52;8.70;92.40
20498;DHT22;10407;53.238;10.448;2023-04-02T14:46:25;8.60;94.70
20498;DHT22;10407;53.238;10.448;2023-04-02T14:49:08;7.80;96.50
20498;DHT22;10407;53.238;10.448;2023-04-02T14:54:16;7.50;99.90
20498;DHT22;10407;53.238;10.448;2023-04-02T14:56:59;7.80;99.90
20498;DHT22;10407;53.238;10.448;2023-04-02T15:02:15;7.60;97.30
20498;DHT22;10407;53.238;10.448;2023-04-02T15:04:48;7.60;95.60
20498;DHT22;10407;53.238;10.448;2023-04-02T15:07:21;8.20;94.50
20498;DHT22;10407;53.238;10.448;2023-04-02T15:10:06;8.50;93.10
20498;DHT22;10407;53.238;10.448;2023-04-02T15:12:35;8.60;92.50
20498;DHT22;10407;53.238;10.448;2023-04-02T15:15:21;8.40;99.90
20498;DHT22;10407;53.238;10.448;2023-04-02T15:17:47;7.90;99.90
20498;DHT22;10407;53.238;10.448;2023-04-02T15:20:17;7.70;99.90
20498;DHT22;10407;53.238;10.448;2023-04-02T15:23:12;7.60;99.90
20498;DHT22;10407;53.238;10.448;2023-04-02T15:25:45;7.40;99.90
20498;DHT22;10407;53.238;10.448;2023-04-02T15:31:02;7.90;99.90
20498;DHT22;10407;53.238;10.448;2023-04-02T15:33:33;8.00;99.90
20498;DHT22;10407;53.238;10.448;2023-04-02T15:36:35;8.10;99.90
20498;DHT22;10407;53.238;10.448;2023-04-02T15:39:16;8.10;99.90
20498;DHT22;10407;53.238;10.448;2023-04-02T15:41:54;7.90;99.90
20498;DHT22;10407;53.238;10.448;2023-04-02T15:44:17;7.70;99.90
20498;DHT22;10407;53.238;10.448;2023-04-02T15:47:07;7.80;99.90
20498;DHT22;10407;53.238;10.448;2023-04-02T15:55:25;7.30;99.90
20498;DHT22;10407;53.238;10.448;2023-04-02T15:58:15;7.00;99.90
20498;DHT22;10407;53.238;10.448;2023-04-02T16:06:42;7.60;99.90
20498;DHT22;10407;53.238;10.448;2023-04-02T16:09:15;7.80;99.90
20498;DHT22;10407;53.238;10.448;2023-04-02T16:11:42;7.60;99.90
20498;DHT22;10407;53.238;10.448;2023-04-02T16:14:24;7.10;99.90
20498;DHT22;10407;53.238;10.448;2023-04-02T16:17:02;7.20;99.90
20498;DHT22;10407;53.238;10.448;2023-04-02T16:19:43;7.40;99.90
20498;DHT22;10407;53.238;10.448;2023-04-02T16:22:17;7.30;99.90
20498;DHT22;10407;53.238;10.448;2023-04-02T16:24:45;7.10;99.90
20498;DHT22;10407;53.238;10.448;2023-04-02T16:29:54;6.60;99.90
20498;DHT22;10407;53.238;10.448;2023-04-02T16:32:37;6.70;99.90
20498;DHT22;10407;53.238;10.448;2023-04-02T16:35:22;6.70;99.90
20498;DHT22;10407;53.238;10.448;2023-04-02T16:37:53;6.80;99.90
20498;DHT22;10407;53.238;10.448;2023-04-02T16:40:41;7.10;99.90
20498;DHT22;10407;53.238;10.448;2023-04-02T16:46:16;6.90;99.90
20498;DHT22;10407;53.238;10.448;2023-04-02T16:48:48;6.90;99.90
20498;DHT22;10407;53.238;10.448;2023-04-02T16:54:04;6.80;99.90
20498;DHT22;10407;53.238;10.448;2023-04-02T16:56:35;6.70;99.90
20498;DHT22;10407;53.238;10.448;2023-04-02T16:59:27;6.60;99.90
20498;DHT22;10407;53.238;10.448;2023-04-02T17:16:35;6.50;99.90
20498;DHT22;10407;53.238;10.448;2023-04-02T17:18:22;6.40;99.90
20498;DHT22;10407;53.238;10.448;2023-04-02T17:20:50;6.40;99.90
20498;DHT22;10407;53.238;10.448;2023-04-02T17:23:19;6.50;99.90
20498;DHT22;10407;53.238;10.448;2023-04-02T17:25:57;6.70;99.90
20498;DHT22;10407;53.238;10.448;2023-04-02T17:28:29;6.50;99.90
20498;DHT22;10407;53.238;10.448;2023-04-02T17:30:59;6.40;99.90
20498;DHT22;10407;53.238;10.448;2023-04-02T17:33:27;6.50;99.90
20498;DHT22;10407;53.238;10.448;2023-04-02T17:38:39;6.30;99.90
20498;DHT22;10407;53.238;10.448;2023-04-02T17:41:19;6.30;99.90
20498;DHT22;10407;53.238;10.448;2023-04-02T17:44:14;6.20;99.90
20498;DHT22;10407;53.238;10.448;2023-04-02T17:49:44;5.90;99.90
20498;DHT22;10407;53.238;10.448;2023-04-02T17:55:08;6.10;99.90
20498;DHT22;10407;53.238;10.448;2023-04-02T18:08:43;5.70;99.90
20498;DHT22;10407;53.238;10.448;2023-04-02T18:11:13;5.90;99.90
20498;DHT22;10407;53.238;10.448;2023-04-02T18:13:48;5.70;99.90
20498;DHT22;10407;53.238;10.448;2023-04-02T18:19:29;5.50;99.90
20498;DHT22;10407;53.238;10.448;2023-04-02T18:22:17;5.40;99.90
20498;DHT22;10407;53.238;10.448;2023-04-02T18:27:43;5.40;99.90
20498;DHT22;10407;53.238;10.448;2023-04-02T18:33:06;5.50;99.90
20498;DHT22;10407;53.238;10.448;2023-04-02T18:38:19;5.20;99.90
20498;DHT22;10407;53.238;10.448;2023-04-02T18:43:45;4.90;99.90
20498;DHT22;10407;53.238;10.448;2023-04-02T18:46:53;4.90;99.90
20498;DHT22;10407;53.238;10.448;2023-04-02T18:49:34;4.90;99.90
20498;DHT22;10407;53.238;10.448;2023-04-02T18:52:11;5.10;99.90
20498;DHT22;10407;53.238;10.448;2023-04-02T18:54:42;5.00;99.90
20498;DHT22;10407;53.238;10.448;2023-04-02T18:57:16;4.80;99.90
20498;DHT22;10407;53.238;10.448;2023-04-02T18:59:59;5.10;99.90
20498;DHT22;10407;53.238;10.448;2023-04-02T19:05:07;4.70;99.90
20498;DHT22;10407;53.238;10.448;2023-04-02T19:07:32;4.90;99.90
20498;DHT22;10407;53.238;10.448;2023-04-02T19:10:16;4.60;99.90
20498;DHT22;10407;53.238;10.448;2023-04-02T19:12:39;4.40;99.90
20498;DHT22;10407;53.238;10.448;2023-04-02T19:15:15;4.70;99.90